Time;durP1;ratioP1;P1;durP2;ratioP2;P2;SDS_P1;SDS_P2;PMS_P1;PMS_P2;Temp;Humidity;BMP_temperature;BMP_pressure;BME280_temperature;BME280_humidity;BME280_pressure;Samples;Min_cycle;Max_cycle;Signal;HPM_P1;HPM_P2
2021/06/19 00:00:23;;;;;;;5.78;4.88;;;;;;;20.48;65.29;100016.75;3587461;40;20052;-58
2021/06/19 00:02:51;;;;;;;6.32;4.70;;;;;;;20.40;64.13;100030.88;3577402;40;20314;-61
2021/06/19 00:05:19;;;;;;;4.88;4.13;;;;;;;20.37;65.14;100047.19;3587279;40;20037;-61
2021/06/19 00:07:46;;;;;;;6.22;4.88;;;;;;;20.31;66.48;100055.84;3587413;40;20068;-58
2021/06/19 00:10:15;;;;;;;5.32;4.22;;;;;;;20.28;65.10;100050.09;3587436;40;20041;-57
2021/06/19 00:12:45;;;;;;;5.90;4.30;;;;;;;20.22;67.37;100046.28;3587156;40;20395;-59
2021/06/19 00:15:15;;;;;;;4.63;3.95;;;;;;;20.11;66.90;100052.03;3587509;40;20083;-62
2021/06/19 00:17:43;;;;;;;6.57;4.72;;;;;;;19.98;66.59;100055.25;3587379;40;20071;-61
2021/06/19 00:20:22;;;;;;;6.60;4.35;;;;;;;20.00;67.45;100044.50;3586756;40;20052;-62
2021/06/19 00:22:51;;;;;;;6.65;4.70;;;;;;;19.88;67.73;100046.69;3587196;40;20063;-60
2021/06/19 00:25:20;;;;;;;7.38;5.63;;;;;;;19.83;69.00;100051.72;3586740;40;20044;-60
2021/06/19 00:27:48;;;;;;;6.45;5.03;;;;;;;19.68;69.37;100049.81;3587002;40;20063;-60
2021/06/19 00:30:17;;;;;;;6.28;5.07;;;;;;;19.72;68.56;100050.28;3587142;40;20068;-60
2021/06/19 00:32:45;;;;;;;7.35;4.97;;;;;;;19.68;69.49;100049.81;3587227;40;20056;-59
2021/06/19 00:35:14;;;;;;;8.70;5.78;;;;;;;19.65;70.13;100059.94;3585281;40;20052;-59
2021/06/19 00:37:42;;;;;;;9.88;6.47;;;;;;;19.55;70.50;100061.94;3587335;40;20752;-61
2021/06/19 00:40:12;;;;;;;7.45;5.60;;;;;;;19.42;72.09;100065.19;3587370;40;20067;-63
2021/06/19 00:42:48;;;;;;;6.93;4.65;;;;;;;19.50;69.26;100062.47;3587062;40;20104;-61
2021/06/19 00:45:16;;;;;;;7.45;5.25;;;;;;;19.52;69.41;100062.31;3587220;40;20080;-58
2021/06/19 00:47:43;;;;;;;7.22;6.38;;;;;;;19.50;72.15;100061.63;3587101;40;20064;-57
2021/06/19 00:50:11;;;;;;;9.10;6.50;;;;;;;19.44;71.89;100068.47;3587183;40;20052;-61
2021/06/19 00:52:39;;;;;;;8.00;5.97;;;;;;;19.43;71.00;100070.28;3587122;40;20068;-59
2021/06/19 00:55:07;;;;;;;6.95;5.18;;;;;;;19.44;72.78;100074.59;3577881;40;20047;-59
2021/06/19 00:57:35;;;;;;;7.75;6.00;;;;;;;19.38;72.80;100083.25;3586504;40;20049;-56
2021/06/19 01:00:06;;;;;;;7.88;6.60;;;;;;;19.39;73.05;100076.94;3586701;40;20138;-59
2021/06/19 01:02:33;;;;;;;7.00;5.97;;;;;;;19.34;72.80;100073.16;3587285;40;20079;-59
2021/06/19 01:05:01;;;;;;;6.80;5.22;;;;;;;19.34;73.16;100071.31;3586657;40;20430;-56
2021/06/19 01:07:28;;;;;;;11.05;8.07;;;;;;;19.14;74.76;100070.06;3584930;40;20068;-58
2021/06/19 01:09:56;;;;;;;8.60;6.88;;;;;;;19.19;74.13;100087.13;3586820;40;20048;-61
2021/06/19 01:12:23;;;;;;;8.35;7.50;;;;;;;19.19;74.54;100086.31;3586922;40;20063;-59
2021/06/19 01:14:53;;;;;;;8.55;6.32;;;;;;;19.18;73.89;100077.53;3586648;40;20053;-59
2021/06/19 01:17:21;;;;;;;7.72;6.47;;;;;;;19.10;74.73;100066.94;3586812;40;20130;-58
2021/06/19 01:20:08;;;;;;;6.68;5.40;;;;;;;19.07;72.47;100064.59;3586951;40;20075;-60
2021/06/19 01:22:38;;;;;;;6.63;5.72;;;;;;;19.05;73.88;100071.91;3587052;40;20088;-60
2021/06/19 01:25:16;;;;;;;11.48;5.07;;;;;;;19.05;71.83;100074.56;3587053;40;20058;-58
2021/06/19 01:27:47;;;;;;;9.50;5.38;;;;;;;19.04;70.82;100088.00;3586871;40;20084;-58
2021/06/19 01:30:16;;;;;;;5.97;4.55;;;;;;;19.04;71.85;100086.19;3586784;40;20053;-59
2021/06/19 01:32:44;;;;;;;6.47;4.90;;;;;;;19.00;71.79;100094.63;3586409;40;20459;-60
2021/06/19 01:35:12;;;;;;;5.88;4.93;;;;;;;18.95;72.53;100100.44;3586787;40;20056;-57
2021/06/19 01:37:44;;;;;;;6.18;4.95;;;;;;;18.92;72.38;100106.06;3585685;40;20084;-58
2021/06/19 01:40:15;;;;;;;5.35;4.68;;;;;;;18.86;72.06;100120.00;3586787;40;20061;-59
2021/06/19 01:42:45;;;;;;;4.60;4.00;;;;;;;18.86;70.60;100127.94;3586807;40;20319;-58
2021/06/19 01:45:16;;;;;;;6.05;4.38;;;;;;;18.85;73.21;100136.91;3586862;40;20052;-57
2021/06/19 01:47:45;;;;;;;5.53;4.40;;;;;;;18.85;72.45;100150.13;3586241;40;20049;-58
2021/06/19 01:50:24;;;;;;;6.05;4.00;;;;;;;18.83;74.30;100133.56;3586471;40;20060;-57
2021/06/19 01:52:52;;;;;;;5.28;3.60;;;;;;;18.77;72.51;100140.38;3586393;40;20353;-59
2021/06/19 01:55:20;;;;;;;7.15;4.53;;;;;;;18.77;72.82;100142.19;3586454;40;20400;-58
2021/06/19 01:57:51;;;;;;;5.70;4.80;;;;;;;18.80;72.95;100141.84;3586793;40;20113;-60
2021/06/19 02:00:30;;;;;;;8.70;6.45;;;;;;;18.76;76.51;100144.00;3586998;40;20060;-60
2021/06/19 02:02:58;;;;;;;6.85;5.75;;;;;;;18.78;75.06;100149.97;3586772;40;20064;-59
2021/06/19 02:05:26;;;;;;;6.40;5.10;;;;;;;18.76;75.60;100144.00;3586798;40;20350;-59
2021/06/19 02:07:59;;;;;;;7.13;6.43;;;;;;;18.79;76.28;100154.25;3585992;40;20048;-59
2021/06/19 02:10:32;;;;;;;9.30;6.45;;;;;;;18.72;76.85;100139.22;3577591;40;20262;-59
2021/06/19 02:13:01;;;;;;;6.47;5.35;;;;;;;18.72;76.38;100147.16;3586527;40;20045;-59
2021/06/19 02:15:29;;;;;;;8.07;7.07;;;;;;;18.74;77.15;100147.81;3584649;40;20324;-60
2021/06/19 02:17:57;;;;;;;7.95;6.93;;;;;;;18.76;78.05;100154.63;3586534;40;20070;-60
2021/06/19 02:20:25;;;;;;;8.57;7.10;;;;;;;18.80;77.49;100166.53;3586057;40;20056;-59
2021/06/19 02:22:54;;;;;;;9.35;7.32;;;;;;;18.81;77.04;100172.66;3586113;40;20048;-62
2021/06/19 02:25:23;;;;;;;7.63;6.82;;;;;;;18.86;77.32;100167.69;3586422;40;20048;-60
2021/06/19 02:27:54;;;;;;;9.38;8.32;;;;;;;18.88;76.98;100169.16;3586795;40;20060;-60
2021/06/19 02:30:24;;;;;;;9.25;8.32;;;;;;;18.88;78.08;100171.00;3586117;40;20052;-60
2021/06/19 02:32:53;;;;;;;10.35;8.85;;;;;;;18.92;78.25;100167.03;3586544;40;20049;-60
2021/06/19 02:35:22;;;;;;;11.15;9.88;;;;;;;18.87;78.29;100180.78;3586493;40;20063;-57
2021/06/19 02:37:50;;;;;;;10.98;9.13;;;;;;;18.92;78.60;100183.75;3585978;40;20080;-59
2021/06/19 02:40:17;;;;;;;8.52;7.63;;;;;;;18.95;78.23;100177.31;3586254;40;20040;-61
2021/06/19 02:42:46;;;;;;;9.13;8.10;;;;;;;19.01;78.19;100189.88;3586073;40;20084;-62
2021/06/19 02:45:13;;;;;;;11.90;9.23;;;;;;;18.97;78.66;100190.38;3586314;40;20056;-61
2021/06/19 02:47:43;;;;;;;12.35;9.15;;;;;;;19.03;79.02;100185.22;3586217;40;20092;-62
2021/06/19 02:50:12;;;;;;;10.77;9.77;;;;;;;19.08;79.76;100184.72;3586312;40;20056;-59
2021/06/19 02:52:42;;;;;;;9.98;8.27;;;;;;;19.12;77.98;100194.00;3586123;40;20085;-60
2021/06/19 02:55:22;;;;;;;8.40;7.60;;;;;;;19.20;77.78;100207.25;3586133;40;20044;-59
2021/06/19 02:57:49;;;;;;;8.23;7.05;;;;;;;19.25;77.41;100204.13;3586408;40;20311;-60
2021/06/19 03:00:18;;;;;;;9.13;7.40;;;;;;;19.34;76.97;100200.47;3585911;40;20056;-58
2021/06/19 03:02:48;;;;;;;11.23;8.18;;;;;;;19.40;77.63;100197.94;3586382;40;20289;-61
2021/06/19 03:05:19;;;;;;;9.27;8.38;;;;;;;19.44;76.93;100196.63;3585944;40;20044;-59
2021/06/19 03:07:48;;;;;;;10.18;8.93;;;;;;;19.48;76.50;100198.94;3585902;40;20084;-58
2021/06/19 03:10:19;;;;;;;7.25;6.47;;;;;;;19.55;75.45;100203.38;3586312;40;20055;-60
2021/06/19 03:12:48;;;;;;;6.10;5.35;;;;;;;19.57;74.48;100211.19;3586395;40;20056;-57
2021/06/19 03:15:16;;;;;;;8.63;6.43;;;;;;;19.64;74.53;100210.34;3586100;40;20053;-57
2021/06/19 03:17:44;;;;;;;8.00;6.63;;;;;;;19.68;72.82;100213.50;3586131;40;20064;-59
2021/06/19 03:20:13;;;;;;;7.72;4.95;;;;;;;19.78;72.42;100218.63;3585879;40;20063;-58
2021/06/19 03:22:45;;;;;;;6.32;5.15;;;;;;;19.81;70.71;100227.06;3586024;40;20084;-59
2021/06/19 03:25:21;;;;;;;7.55;4.43;;;;;;;19.89;71.57;100229.72;3585776;40;20044;-59
2021/06/19 03:27:54;;;;;;;6.22;3.80;;;;;;;19.85;69.52;100224.91;3585905;40;20052;-59
2021/06/19 03:30:22;;;;;;;5.85;4.07;;;;;;;19.79;68.68;100226.41;3586117;40;20060;-55
2021/06/19 03:32:50;;;;;;;6.00;4.10;;;;;;;19.78;70.60;100224.75;3586000;40;20094;-59
2021/06/19 03:35:18;;;;;;;4.70;3.97;;;;;;;19.71;70.47;100242.38;3585947;40;20052;-55
2021/06/19 03:37:46;;;;;;;6.65;3.92;;;;;;;19.76;70.52;100240.03;3585792;40;20061;-58
2021/06/19 03:40:16;;;;;;;6.10;4.43;;;;;;;19.60;69.53;100250.66;3585184;40;20129;-59
2021/06/19 03:42:51;;;;;;;66.97;36.13;;;;;;;19.55;69.23;100251.13;3586138;40;20056;-59
2021/06/19 03:45:21;;;;;;;99.88;46.30;;;;;;;19.61;69.28;100255.00;3576539;40;20064;-58
2021/06/19 03:47:49;;;;;;;9.15;6.35;;;;;;;19.63;71.38;100248.50;3576539;40;20053;-57
2021/06/19 03:50:18;;;;;;;6.50;4.60;;;;;;;19.53;70.98;100261.09;3585913;40;20056;-60
2021/06/19 03:52:52;;;;;;;5.25;3.83;;;;;;;19.41;70.54;100257.94;3585725;40;20048;-57
2021/06/19 03:55:20;;;;;;;6.00;4.30;;;;;;;19.33;71.39;100262.47;3585887;40;20056;-57
2021/06/19 03:57:47;;;;;;;6.15;4.65;;;;;;;19.26;72.25;100261.44;3586119;40;20052;-57
2021/06/19 04:00:17;;;;;;;5.32;3.88;;;;;;;19.23;71.41;100257.31;3585276;40;20356;-60
2021/06/19 04:02:45;;;;;;;7.75;4.72;;;;;;;19.24;71.69;100258.97;3585925;40;20049;-62
2021/06/19 04:05:14;;;;;;;8.85;7.30;;;;;;;18.99;73.39;100270.53;3585607;40;20336;-60
2021/06/19 04:07:44;;;;;;;16.17;11.57;;;;;;;18.98;72.96;100280.31;3585748;40;20059;-58
2021/06/19 04:10:13;;;;;;;6.47;5.00;;;;;;;19.01;72.08;100289.78;3585600;40;20053;-57
2021/06/19 04:12:41;;;;;;;5.72;4.97;;;;;;;18.93;72.41;100285.28;3585802;40;20068;-57
2021/06/19 04:15:11;;;;;;;6.05;4.55;;;;;;;18.87;73.40;100289.44;3585877;40;20385;-58
2021/06/19 04:17:39;;;;;;;4.38;3.97;;;;;;;18.83;72.91;100290.75;3585880;40;20037;-58
2021/06/19 04:20:08;;;;;;;6.00;4.57;;;;;;;18.87;72.14;100300.03;3585716;40;20076;-57
2021/06/19 04:22:36;;;;;;;9.20;4.38;;;;;;;18.83;72.80;100289.91;3585836;40;20084;-58
2021/06/19 04:25:06;;;;;;;5.72;4.78;;;;;;;18.92;72.56;100294.25;3585571;40;20056;-57
2021/06/19 04:27:49;;;;;;;7.03;4.22;;;;;;;18.89;72.28;100292.72;3584666;40;20061;-60
2021/06/19 04:30:17;;;;;;;5.20;3.97;;;;;;;18.90;73.00;100293.59;3585337;40;20053;-59
2021/06/19 04:32:45;;;;;;;5.82;5.05;;;;;;;18.90;73.90;100294.41;3585422;40;20049;-59
2021/06/19 04:35:14;;;;;;;6.45;5.00;;;;;;;18.93;73.17;100294.06;3585667;40;20067;-56
2021/06/19 04:37:45;;;;;;;8.85;4.15;;;;;;;19.01;74.63;100303.88;3585017;40;20096;-59
2021/06/19 04:42:59;;;;;;;4.65;3.95;;;;;;;19.05;74.14;100307.03;3584447;40;20368;-59
2021/06/19 04:45:29;;;;;;;6.18;4.05;;;;;;;19.06;73.07;100298.06;3587056;40;20415;-60
2021/06/19 04:48:02;;;;;;;10.50;6.97;;;;;;;19.21;73.50;100306.19;3587067;40;20102;-62
2021/06/19 04:50:32;;;;;;;69.57;40.60;;;;;;;19.23;72.63;100307.72;3587241;40;20060;-60
2021/06/19 04:53:01;;;;;;;12.80;8.70;;;;;;;19.37;71.71;100307.03;3586552;40;20056;-60
2021/06/19 04:55:30;;;;;;;8.43;4.97;;;;;;;19.48;71.32;100319.13;3586607;40;20049;-61
2021/06/19 04:58:02;;;;;;;5.63;4.53;;;;;;;19.57;71.32;100323.44;3584509;40;20430;-58
2021/06/19 05:00:32;;;;;;;6.28;4.20;;;;;;;19.63;70.25;100330.75;3587018;40;20056;-58
2021/06/19 05:02:59;;;;;;;5.20;3.80;;;;;;;19.59;69.75;100328.56;3586676;40;20060;-59
2021/06/19 05:05:28;;;;;;;5.35;4.10;;;;;;;19.53;69.30;100335.38;3586892;40;20028;-61
2021/06/19 05:07:56;;;;;;;4.60;3.78;;;;;;;19.59;70.63;100333.88;3586123;40;20060;-59
2021/06/19 05:10:23;;;;;;;5.78;4.05;;;;;;;19.44;69.83;100345.16;3586862;40;20049;-59
2021/06/19 05:12:51;;;;;;;48.58;30.17;;;;;;;19.39;68.74;100346.66;3586570;40;20142;-61
2021/06/19 05:15:28;;;;;;;37.53;22.13;;;;;;;19.37;69.39;100353.94;3587222;40;20389;-58
2021/06/19 05:17:56;;;;;;;17.27;10.27;;;;;;;19.33;69.44;100357.94;3587015;40;20419;-59
2021/06/19 05:20:27;;;;;;;6.75;4.60;;;;;;;19.29;69.83;100370.69;3586570;40;20052;-60
2021/06/19 05:22:58;;;;;;;5.97;4.20;;;;;;;19.23;70.37;100370.50;3586408;40;21436;-61
2021/06/19 05:25:27;;;;;;;6.60;4.00;;;;;;;19.26;69.36;100371.00;3586966;40;20154;-61
2021/06/19 05:27:55;;;;;;;7.75;4.85;;;;;;;19.33;69.45;100379.16;3584532;40;20130;-59
2021/06/19 05:30:22;;;;;;;5.53;4.15;;;;;;;19.34;70.24;100378.16;3586870;40;20056;-62
2021/06/19 05:32:49;;;;;;;5.55;4.38;;;;;;;19.36;70.22;100370.84;3586565;40;20044;-67
2021/06/19 05:35:17;;;;;;;6.30;3.90;;;;;;;19.41;69.36;100377.31;3586554;40;20059;-60
2021/06/19 05:37:44;;;;;;;5.50;3.65;;;;;;;19.44;69.51;100376.16;3586937;40;20058;-60
2021/06/19 05:40:12;;;;;;;5.22;3.90;;;;;;;19.49;68.70;100391.59;3586610;40;20057;-63
2021/06/19 05:42:40;;;;;;;6.35;3.90;;;;;;;19.45;68.03;100386.59;3585427;40;20130;-60
2021/06/19 05:45:09;;;;;;;6.07;3.63;;;;;;;19.78;67.97;100391.13;3586188;40;20049;-60
2021/06/19 05:47:36;;;;;;;5.78;3.97;;;;;;;20.03;66.87;100390.09;3586668;40;20057;-59
2021/06/19 05:50:05;;;;;;;6.03;3.40;;;;;;;20.15;67.74;100398.56;3586569;40;20045;-63
2021/06/19 05:52:33;;;;;;;4.45;3.22;;;;;;;20.08;66.66;100398.41;3586465;40;20115;-62
2021/06/19 05:55:01;;;;;;;4.90;3.72;;;;;;;20.30;66.68;100402.19;3586253;40;20063;-62
2021/06/19 05:57:28;;;;;;;3.65;2.75;;;;;;;20.30;64.97;100399.53;3586487;40;20056;-64
2021/06/19 05:59:55;;;;;;;5.88;3.40;;;;;;;20.26;68.47;100386.75;3586546;40;20048;-67
2021/06/19 06:02:22;;;;;;;4.20;2.92;;;;;;;20.25;65.75;100401.03;3586084;40;20052;-64
2021/06/19 06:04:50;;;;;;;4.03;2.63;;;;;;;20.40;64.73;100401.97;3586212;40;20045;-66
2021/06/19 06:07:17;;;;;;;202.77;110.00;;;;;;;20.40;64.42;100404.63;3586338;40;20052;-70
2021/06/19 06:09:44;;;;;;;21.88;13.52;;;;;;;20.26;63.90;100400.84;3577239;40;20052;-64
2021/06/19 06:12:12;;;;;;;5.05;3.22;;;;;;;20.07;63.83;100394.06;3586233;40;20056;-61
2021/06/19 06:14:39;;;;;;;3.20;2.22;;;;;;;20.26;66.23;100390.22;3586259;40;20134;-64
2021/06/19 06:17:07;;;;;;;5.68;2.85;;;;;;;20.04;64.36;100397.09;3586603;40;20181;-66
2021/06/19 06:19:34;;;;;;;3.70;2.65;;;;;;;20.27;65.36;100407.84;3586431;40;20205;-59
2021/06/19 06:22:03;;;;;;;3.50;2.50;;;;;;;20.45;64.20;100404.94;3585854;40;20063;-64
2021/06/19 06:24:31;;;;;;;3.88;2.70;;;;;;;20.40;63.42;100405.47;3586214;40;20135;-65
2021/06/19 06:26:59;;;;;;;3.70;2.22;;;;;;;20.32;63.28;100407.31;3586508;40;20052;-73
2021/06/19 06:29:26;;;;;;;4.22;2.70;;;;;;;20.45;62.81;100407.59;3586192;40;20084;-64
2021/06/19 06:31:54;;;;;;;3.90;2.40;;;;;;;20.64;64.71;100399.28;3586357;40;20084;-63
2021/06/19 06:34:23;;;;;;;3.92;2.65;;;;;;;20.54;64.12;100405.78;3586419;40;20056;-61
2021/06/19 06:36:52;;;;;;;3.05;1.98;;;;;;;20.56;64.49;100401.97;3586300;40;20393;-62
2021/06/19 06:39:20;;;;;;;4.43;2.50;;;;;;;20.76;64.64;100410.38;3585746;40;20048;-62
2021/06/19 06:41:47;;;;;;;3.92;2.42;;;;;;;20.87;64.36;100414.47;3586017;40;20438;-60
2021/06/19 06:44:15;;;;;;;17.00;9.20;;;;;;;21.11;62.67;100406.38;3586683;40;20052;-59
2021/06/19 06:46:42;;;;;;;5.20;2.63;;;;;;;21.11;62.71;100408.19;3586090;40;20045;-64
2021/06/19 06:49:10;;;;;;;3.88;2.10;;;;;;;21.09;62.14;100420.84;3584417;40;20076;-64
2021/06/19 06:51:38;;;;;;;4.05;2.22;;;;;;;20.79;60.39;100420.63;3586567;40;20063;-60
2021/06/19 06:54:06;;;;;;;2.47;1.70;;;;;;;20.78;59.71;100421.66;3586661;40;20055;-62
2021/06/19 06:56:33;;;;;;;3.33;2.15;;;;;;;20.73;62.20;100420.50;3585295;40;20129;-62
2021/06/19 06:59:01;;;;;;;11.50;1.63;;;;;;;20.68;62.97;100421.03;3586594;40;20045;-62
2021/06/19 07:01:28;;;;;;;2.60;1.45;;;;;;;20.77;58.71;100421.81;3586246;40;20064;-62
2021/06/19 07:03:56;;;;;;;1.92;1.40;;;;;;;21.12;58.59;100423.16;3586558;40;20437;-63
2021/06/19 07:06:23;;;;;;;1.98;1.20;;;;;;;21.50;58.81;100424.09;3586015;40;20045;-60
2021/06/19 07:08:51;;;;;;;1.65;1.02;;;;;;;21.43;57.55;100429.31;3586492;40;20134;-63
2021/06/19 07:11:22;;;;;;;1.45;1.00;;;;;;;21.29;55.30;100431.88;3586548;40;20048;-63
2021/06/19 07:13:49;;;;;;;1.08;0.70;;;;;;;21.38;56.81;100434.34;3586240;40;20040;-63
2021/06/19 07:16:17;;;;;;;1.23;0.90;;;;;;;21.45;56.80;100434.44;3586485;40;20080;-62
2021/06/19 07:18:45;;;;;;;1.23;0.82;;;;;;;21.33;55.80;100431.38;3586411;40;20080;-63
2021/06/19 07:21:15;;;;;;;1.38;1.00;;;;;;;21.52;57.56;100438.06;3586467;40;20052;-61
2021/06/19 07:23:44;;;;;;;1.23;0.88;;;;;;;21.48;57.26;100437.59;3586529;40;20126;-67
2021/06/19 07:26:11;;;;;;;3.72;1.35;;;;;;;21.38;55.99;100452.16;3586374;40;20047;-59
2021/06/19 07:28:38;;;;;;;2.08;1.40;;;;;;;21.63;58.66;100450.13;3586089;40;20271;-60
2021/06/19 07:31:06;;;;;;;3.10;1.20;;;;;;;21.58;57.28;100457.84;3586015;40;20051;-72
2021/06/19 07:33:33;;;;;;;3.05;1.35;;;;;;;21.96;59.13;100464.03;3585537;40;20045;-61
2021/06/19 07:36:00;;;;;;;1.50;1.20;;;;;;;21.62;56.02;100462.63;3586430;40;20060;-62
2021/06/19 07:38:30;;;;;;;1.48;1.13;;;;;;;21.70;55.46;100472.41;3586467;40;20130;-59
2021/06/19 07:40:57;;;;;;;2.53;1.30;;;;;;;21.48;57.16;100469.53;3586152;40;20057;-60
2021/06/19 07:43:24;;;;;;;1.95;1.20;;;;;;;21.50;56.46;100460.53;3586350;40;20082;-59
2021/06/19 07:45:53;;;;;;;110.88;76.45;;;;;;;21.45;57.23;100469.88;3586166;40;20434;-60
2021/06/19 07:48:20;;;;;;;44.33;29.42;;;;;;;21.51;58.39;100479.00;3586201;40;20138;-55
2021/06/19 07:50:48;;;;;;;5.65;3.30;;;;;;;21.48;56.62;100469.53;3586261;40;20056;-56
2021/06/19 07:53:16;;;;;;;2.17;1.40;;;;;;;21.66;57.12;100481.75;3586574;40;20052;-57
2021/06/19 07:55:43;;;;;;;1.52;1.10;;;;;;;21.50;56.66;100484.50;3585904;40;20404;-58
2021/06/19 07:58:10;;;;;;;2.03;1.25;;;;;;;21.74;54.83;100481.66;3585997;40;20045;-56
2021/06/19 08:00:38;;;;;;;1.92;0.95;;;;;;;21.81;57.83;100487.94;3585982;40;20323;-62
2021/06/19 08:03:06;;;;;;;1.63;1.17;;;;;;;21.96;55.58;100496.00;3585250;40;20067;-61
2021/06/19 08:05:33;;;;;;;2.13;0.90;;;;;;;21.71;56.04;100490.03;3585950;40;20056;-60
2021/06/19 08:08:00;;;;;;;1.50;0.98;;;;;;;21.46;55.31;100498.16;3585805;40;20048;-63
2021/06/19 08:10:28;;;;;;;1.92;0.95;;;;;;;21.38;55.80;100505.38;3585818;40;20064;-58
2021/06/19 08:12:56;;;;;;;2.42;1.23;;;;;;;21.20;57.06;100495.75;3586231;40;20044;-58
2021/06/19 08:15:24;;;;;;;1.60;1.17;;;;;;;21.52;56.45;100506.44;3586202;40;20133;-60
2021/06/19 08:17:51;;;;;;;1.70;1.13;;;;;;;21.32;56.08;100508.72;3585977;40;20064;-63
2021/06/19 08:20:19;;;;;;;1.48;0.98;;;;;;;21.28;57.21;100507.38;3587684;40;20041;-60
2021/06/19 08:22:47;;;;;;;1.52;1.05;;;;;;;21.18;56.31;100502.28;3587693;40;20063;-68
2021/06/19 08:25:15;;;;;;;2.38;1.10;;;;;;;21.04;55.93;100506.47;3587420;40;20323;-60
2021/06/19 08:27:43;;;;;;;1.48;1.02;;;;;;;21.23;57.11;100506.06;3587330;40;20052;-66
2021/06/19 09:02:43;;;;;;;1.40;0.90;;;;;;;24.21;49.63;100520.38;3603702;39;20436;-52
2021/06/19 09:05:14;;;;;;;4.47;1.10;;;;;;;24.55;48.78;100520.66;3582172;39;20445;-57
2021/06/19 09:07:49;;;;;;;1.80;1.00;;;;;;;24.67;45.81;100516.41;3574314;40;20072;-52
2021/06/19 09:10:24;;;;;;;1.20;0.85;;;;;;;24.95;46.13;100519.84;3574187;40;20133;-54
2021/06/19 09:12:57;;;;;;;3.45;1.27;;;;;;;25.26;46.37;100521.28;3574290;40;20085;-52
2021/06/19 09:15:27;;;;;;;1.80;1.17;;;;;;;25.20;46.26;100517.53;3573851;40;20158;-54
2021/06/19 09:18:09;;;;;;;1.42;1.00;;;;;;;25.41;47.68;100519.28;3579491;40;20442;-53
2021/06/19 09:20:41;;;;;;;1.35;1.00;;;;;;;25.86;44.64;100518.78;3583534;40;20049;-55
2021/06/19 09:23:11;;;;;;;2.00;1.00;;;;;;;25.39;47.02;100515.97;3584286;40;20045;-55
2021/06/19 09:25:39;;;;;;;1.77;1.08;;;;;;;26.41;46.55;100525.63;3583782;40;20048;-53
2021/06/19 09:28:12;;;;;;;1.92;1.10;;;;;;;26.51;47.22;100515.34;3576054;40;20056;-53
2021/06/19 09:30:40;;;;;;;10.38;4.72;;;;;;;25.16;43.48;100518.97;3574060;40;20384;-57
2021/06/19 09:33:10;;;;;;;3.55;2.30;;;;;;;24.39;44.70;100511.06;3574262;40;20057;-54
2021/06/19 09:35:41;;;;;;;2.03;1.38;;;;;;;24.98;46.25;100514.13;3573848;40;20049;-51
2021/06/19 09:38:14;;;;;;;1.48;1.00;;;;;;;24.53;45.11;100515.47;3574059;40;20464;-54
2021/06/19 09:40:48;;;;;;;1.38;1.05;;;;;;;24.36;45.29;100516.78;3574343;40;20072;-56
2021/06/19 09:43:18;;;;;;;1.67;1.00;;;;;;;24.48;47.05;100516.06;3574239;40;20045;-55
2021/06/19 09:46:10;;;;;;;2.03;1.10;;;;;;;23.45;48.35;100521.78;3574115;40;20322;-54
2021/06/19 09:48:40;;;;;;;2.85;1.17;;;;;;;23.90;48.41;100518.00;3574014;40;20056;-53
2021/06/19 09:51:12;;;;;;;1.30;0.90;;;;;;;23.69;48.59;100526.84;3573743;40;20391;-55
2021/06/19 09:53:41;;;;;;;1.45;1.10;;;;;;;23.44;49.87;100520.16;3576823;40;20096;-55
2021/06/19 09:56:10;;;;;;;1.40;1.10;;;;;;;23.12;46.96;100527.56;3584104;40;20056;-57
2021/06/19 09:58:40;;;;;;;1.48;1.13;;;;;;;22.87;48.26;100521.66;3583666;40;20048;-55
2021/06/19 10:01:08;;;;;;;1.55;1.33;;;;;;;23.38;49.53;100518.25;3583957;40;20043;-58
2021/06/19 10:03:58;;;;;;;40.63;21.40;;;;;;;24.18;47.51;100523.41;3584026;40;20088;-58
2021/06/19 10:06:27;;;;;;;14.07;6.25;;;;;;;29.37;38.96;100518.78;3583735;40;20429;-57
2021/06/19 10:08:55;;;;;;;2.95;1.35;;;;;;;22.27;47.66;100527.09;3587054;39;20080;-53
2021/06/19 10:11:28;;;;;;;1.70;1.13;;;;;;;21.28;50.63;100531.31;3582782;39;20057;-55
2021/06/19 10:13:59;;;;;;;2.95;1.15;;;;;;;21.60;50.80;100528.53;3577569;40;20061;-52
2021/06/19 10:16:29;;;;;;;1.77;1.10;;;;;;;21.97;51.52;100519.78;3575805;39;20048;-54
2021/06/19 10:18:58;;;;;;;1.67;1.05;;;;;;;20.86;50.74;100520.00;3577293;40;20134;-57
2021/06/19 10:21:26;;;;;;;3.00;1.00;;;;;;;21.42;50.26;100525.31;3577128;40;20075;-57
2021/06/19 10:23:54;;;;;;;1.60;1.10;;;;;;;22.54;49.40;100531.81;3576287;40;20048;-56
2021/06/19 10:26:24;;;;;;;2.45;1.20;;;;;;;23.24;48.42;100523.41;3576458;40;20045;-53
2021/06/19 10:28:58;;;;;;;2.38;1.13;;;;;;;23.01;47.82;100528.03;3577099;40;20104;-54
2021/06/19 10:31:26;;;;;;;1.65;1.02;;;;;;;23.50;46.83;100522.09;3571614;40;20061;-54
2021/06/19 10:33:54;;;;;;;1.77;1.00;;;;;;;24.05;43.98;100515.25;3567010;40;20081;-57
2021/06/19 10:36:38;;;;;;;1.38;1.10;;;;;;;23.16;46.62;100528.00;3566861;40;20080;-54
2021/06/19 10:39:06;;;;;;;2.27;0.90;;;;;;;24.24;48.23;100527.16;3574852;40;20045;-54
2021/06/19 10:41:42;;;;;;;2.00;1.13;;;;;;;25.17;45.30;100525.16;3577024;40;20736;-58
2021/06/19 10:44:10;;;;;;;1.75;1.10;;;;;;;25.38;43.22;100514.31;3576601;40;20048;-52
2021/06/19 10:46:40;;;;;;;1.45;0.85;;;;;;;23.71;45.21;100521.31;3584272;40;20055;-53
2021/06/19 10:49:20;;;;;;;1.13;0.80;;;;;;;23.29;46.11;100527.38;3576861;40;20061;-56
2021/06/19 10:51:48;;;;;;;1.45;0.90;;;;;;;23.56;45.32;100523.16;3576957;40;20041;-54
2021/06/19 10:54:17;;;;;;;3.67;2.95;;;;;;;23.90;50.12;100522.53;3571640;40;20094;-54
2021/06/19 10:56:56;;;;;;;23.52;12.73;;;;;;;24.67;46.02;100519.06;3566983;40;20069;-56
2021/06/19 10:59:24;;;;;;;2.05;1.35;;;;;;;26.65;44.99;100534.09;3566943;40;20053;-56
2021/06/19 11:01:54;;;;;;;0.88;0.73;;;;;;;26.78;37.84;100528.72;3567025;40;20038;-56
2021/06/19 11:04:39;;;;;;;1.42;1.00;;;;;;;26.34;44.68;100523.97;3551433;40;20072;-56
2021/06/19 11:07:27;;;;;;;1.52;0.85;;;;;;;25.41;42.83;100527.31;3566729;40;20050;-57
2021/06/19 11:09:55;;;;;;;0.88;0.70;;;;;;;26.36;42.39;100519.25;3573261;40;20048;-57
2021/06/19 11:12:26;;;;;;;0.85;0.70;;;;;;;26.63;40.97;100526.25;3576391;40;20051;-57
2021/06/19 11:15:08;;;;;;;0.98;0.60;;;;;;;26.95;43.40;100524.53;3584244;40;20056;-54
2021/06/19 11:17:35;;;;;;;1.65;0.77;;;;;;;26.84;42.25;100513.63;3576588;40;20060;-54
2021/06/19 11:20:08;;;;;;;1.10;0.85;;;;;;;25.34;43.70;100515.72;3576791;40;20049;-54
2021/06/19 11:22:42;;;;;;;2.05;1.27;;;;;;;24.82;41.79;100513.59;3572243;39;20154;-58
2021/06/19 11:25:12;;;;;;;0.82;0.70;;;;;;;25.88;39.19;100516.75;3566184;40;20046;-57
2021/06/19 11:27:57;;;;;;;1.85;0.90;;;;;;;25.00;40.34;100512.06;3566909;40;20080;-58
2021/06/19 11:30:34;;;;;;;1.65;0.82;;;;;;;25.46;38.55;100508.78;3566766;40;20131;-57
2021/06/19 11:33:20;;;;;;;1.30;0.95;;;;;;;26.20;40.96;100507.88;3566727;40;20104;-55
2021/06/19 11:35:58;;;;;;;1.15;0.90;;;;;;;26.42;40.35;100511.19;3565851;40;20441;-57
2021/06/19 11:38:47;;;;;;;2.40;0.95;;;;;;;27.33;42.95;100509.53;3566350;40;20407;-56
2021/06/19 11:41:16;;;;;;;0.93;0.73;;;;;;;27.17;41.51;100509.00;3556182;40;20061;-58
2021/06/19 11:43:44;;;;;;;0.80;0.60;;;;;;;26.41;38.67;100501.50;3556618;40;20061;-56
2021/06/19 11:46:13;;;;;;;1.58;0.90;;;;;;;27.18;41.25;100499.91;3556830;40;20057;-57
2021/06/19 11:48:50;;;;;;;1.38;0.80;;;;;;;26.44;38.33;100492.22;3556463;40;20079;-56
2021/06/19 11:51:23;;;;;;;1.63;0.80;;;;;;;26.12;39.76;100493.88;3556840;40;20093;-57
2021/06/19 11:53:51;;;;;;;3.10;0.82;;;;;;;25.22;39.94;100480.69;3559657;40;20065;-57
2021/06/19 11:56:29;;;;;;;1.55;0.90;;;;;;;26.65;40.51;100475.06;3566153;40;20056;-57
2021/06/19 11:59:03;;;;;;;0.82;0.70;;;;;;;26.64;40.90;100482.31;3566469;40;20042;-58
2021/06/19 12:01:36;;;;;;;1.27;0.80;;;;;;;26.43;41.73;100480.66;3566383;40;20033;-59
2021/06/19 12:04:10;;;;;;;0.85;0.70;;;;;;;26.36;39.95;100484.38;3566386;40;20059;-55
2021/06/19 12:06:44;;;;;;;2.28;0.70;;;;;;;26.72;38.32;100483.91;3556722;40;20128;-57
2021/06/19 12:09:26;;;;;;;1.38;0.93;;;;;;;26.33;41.04;100485.59;3556098;40;20054;-53
2021/06/19 12:11:59;;;;;;;2.42;0.60;;;;;;;26.85;41.97;100489.25;3564415;40;20041;-54